Terminal Aerodrome Forecast
Issued by NWS Twin Cities, MN

Home | Current Version | Previous Version | Text Only | Print | Product List | Glossary On
Versions: 1 2 3 4 5 6 7 8 9 10 11 12 13 14 15 16 17
000
FTUS43 KMPX 290536
TAFSTC
TAF
KSTC 290536Z 2906/3006 33009KT 2SM BR OVC003
      TEMPO 2906/2908 4SM BR OVC006
     FM290800 33015G24KT P6SM OVC010
     FM291200 32019G28KT P6SM OVC015
     FM291800 32015G23KT P6SM BKN025
     FM292100 32012G20KT P6SM SCT025
     FM300200 34007KT P6SM SKC=

USA.gov is the U.S. government's official web portal to all federal, state and local government web resources and services.